createdAt,value
2019-02-17T00:01:25.218Z,32.67
2019-02-17T00:03:53.565Z,35.20
2019-02-17T00:06:21.876Z,43.93
2019-02-17T00:08:50.223Z,31.53
2019-02-17T00:11:18.565Z,31.40
2019-02-17T00:13:46.929Z,28.57
2019-02-17T00:16:15.380Z,34.13
2019-02-17T00:18:43.701Z,40.63
2019-02-17T00:21:12.503Z,41.13
2019-02-17T00:23:41.352Z,30.70
2019-02-17T00:26:09.786Z,31.70
2019-02-17T00:28:38.169Z,29.57
2019-02-17T00:31:06.527Z,37.87
2019-02-17T00:33:34.972Z,32.07
2019-02-17T00:36:03.350Z,36.70
2019-02-17T00:38:31.818Z,27.10
2019-02-17T00:41:00.101Z,35.33
2019-02-17T00:43:28.646Z,31.33
2019-02-17T00:45:57.165Z,28.53
2019-02-17T00:48:25.469Z,28.00
2019-02-17T00:50:53.835Z,30.93
2019-02-17T00:53:22.155Z,30.40
2019-02-17T00:55:50.521Z,31.10
2019-02-17T00:58:19.522Z,30.82
2019-02-17T01:00:47.957Z,27.80
2019-02-17T01:03:16.273Z,30.00
2019-02-17T01:05:44.820Z,35.83
2019-02-17T01:08:13.414Z,34.80
2019-02-17T01:10:42.613Z,30.03
2019-02-17T01:13:11.443Z,26.90
2019-02-17T01:15:39.784Z,29.70
2019-02-17T01:18:08.111Z,30.30
2019-02-17T01:20:36.519Z,39.53
2019-02-17T01:23:04.835Z,45.97
2019-02-17T01:25:33.198Z,32.07
2019-02-17T01:28:01.554Z,34.03
2019-02-17T01:30:29.930Z,37.23
2019-02-17T01:32:58.662Z,32.83
2019-02-17T01:35:26.985Z,31.23
2019-02-17T01:37:55.326Z,29.43
2019-02-17T01:40:23.685Z,34.58
2019-02-17T01:42:52.034Z,29.60
2019-02-17T01:45:20.363Z,33.30
2019-02-17T01:47:48.829Z,28.03
2019-02-17T01:50:17.372Z,28.63
2019-02-17T01:52:45.734Z,30.83
2019-02-17T01:55:15.034Z,26.60
2019-02-17T01:57:43.529Z,33.13
2019-02-17T02:00:13.811Z,31.63
2019-02-17T02:02:42.179Z,31.33
2019-02-17T02:05:11.170Z,28.80
2019-02-17T02:07:39.588Z,32.73
2019-02-17T02:10:09.334Z,32.90
2019-02-17T02:12:37.812Z,38.60
2019-02-17T02:15:07.825Z,30.53
2019-02-17T02:17:36.193Z,28.67
2019-02-17T02:20:07.879Z,30.43
2019-02-17T02:22:36.229Z,32.93
2019-02-17T02:25:06.408Z,33.23
2019-02-17T02:27:35.097Z,31.75
2019-02-17T02:30:04.609Z,33.33
2019-02-17T02:32:33.028Z,31.63
2019-02-17T02:35:01.375Z,36.47
2019-02-17T02:37:29.703Z,35.93
2019-02-17T02:39:58.048Z,29.18
2019-02-17T02:42:26.389Z,32.33
2019-02-17T02:44:54.746Z,30.53
2019-02-17T02:47:23.086Z,31.60
2019-02-17T02:49:51.436Z,29.77
2019-02-17T02:52:19.741Z,29.80
2019-02-17T02:54:48.126Z,30.07
2019-02-17T02:57:16.452Z,28.10
2019-02-17T02:59:52.216Z,31.77
2019-02-17T03:02:15.149Z,30.77
2019-02-17T03:04:43.489Z,28.60
2019-02-17T03:07:12.081Z,32.40
2019-02-17T03:09:40.426Z,41.17
2019-02-17T03:12:08.879Z,28.90
2019-02-17T03:14:37.252Z,30.85
2019-02-17T03:17:05.602Z,29.00
2019-02-17T03:19:33.957Z,29.70
2019-02-17T03:22:02.276Z,32.15
2019-02-17T03:24:30.614Z,24.27
2019-02-17T03:26:59.012Z,28.30
2019-02-17T03:29:27.473Z,30.27
2019-02-17T03:31:55.818Z,24.90
2019-02-17T03:34:24.223Z,27.30
2019-02-17T03:36:53.446Z,29.07
2019-02-17T03:39:21.827Z,26.07
2019-02-17T03:41:50.310Z,21.70
2019-02-17T03:44:18.638Z,29.15
2019-02-17T03:46:46.970Z,29.40
2019-02-17T03:49:15.291Z,25.93
2019-02-17T03:51:43.699Z,24.77
2019-02-17T03:54:12.645Z,26.77
2019-02-17T03:56:40.997Z,29.93
2019-02-17T03:59:09.327Z,27.32
2019-02-17T04:01:37.687Z,25.67
2019-02-17T04:04:06.025Z,26.63
2019-02-17T04:06:34.391Z,26.03
2019-02-17T04:09:02.804Z,23.33
2019-02-17T04:11:31.292Z,27.80
2019-02-17T04:13:59.690Z,24.33
2019-02-17T04:16:28.119Z,24.37
2019-02-17T04:18:56.449Z,23.50
2019-02-17T04:21:24.884Z,26.40
2019-02-17T04:23:53.235Z,28.37
2019-02-17T04:26:21.635Z,28.50
2019-02-17T04:28:50.786Z,26.00
2019-02-17T04:31:19.219Z,29.70
2019-02-17T04:33:47.663Z,27.83
2019-02-17T04:36:15.974Z,24.23
2019-02-17T04:38:44.527Z,27.00
2019-02-17T04:41:13.125Z,25.97
2019-02-17T04:43:41.455Z,24.37
2019-02-17T04:46:10.199Z,28.57
2019-02-17T04:48:38.575Z,27.03
2019-02-17T04:51:06.969Z,25.60
2019-02-17T04:53:35.349Z,26.87
2019-02-17T04:56:03.680Z,25.72
2019-02-17T04:58:32.100Z,28.30
2019-02-17T05:01:00.473Z,23.83
2019-02-17T05:03:30.037Z,27.83
2019-02-17T05:05:58.397Z,20.90
2019-02-17T05:08:26.744Z,23.97
2019-02-17T05:10:55.083Z,23.93
2019-02-17T05:13:23.788Z,27.93
2019-02-17T05:15:52.139Z,25.77
2019-02-17T05:18:20.462Z,22.83
2019-02-17T05:20:48.817Z,25.70
2019-02-17T05:23:17.138Z,21.27
2019-02-17T05:25:45.527Z,24.43
2019-02-17T05:28:14.058Z,22.67
2019-02-17T05:30:52.339Z,24.73
2019-02-17T05:33:13.135Z,24.53
2019-02-17T05:35:41.465Z,20.23
2019-02-17T05:38:09.927Z,21.17
2019-02-17T05:40:38.250Z,20.80
2019-02-17T05:43:06.587Z,19.93
2019-02-17T05:45:34.942Z,22.83
2019-02-17T05:48:03.427Z,21.27
2019-02-17T05:50:31.791Z,30.10
2019-02-17T05:53:00.158Z,21.87
2019-02-17T05:55:28.507Z,23.73
2019-02-17T05:57:56.839Z,24.80
2019-02-17T06:00:26.097Z,22.07
2019-02-17T06:02:54.451Z,22.20
2019-02-17T06:05:22.808Z,20.33
2019-02-17T06:07:51.155Z,26.07
2019-02-17T06:10:19.546Z,24.10
2019-02-17T06:12:48.328Z,26.25
2019-02-17T06:15:16.698Z,23.60
2019-02-17T06:17:45.015Z,25.20
2019-02-17T06:20:13.800Z,23.60
2019-02-17T06:22:42.141Z,22.97
2019-02-17T06:25:11.180Z,23.57
2019-02-17T06:27:39.521Z,25.30
2019-02-17T06:30:09.391Z,22.50
2019-02-17T06:32:37.725Z,22.87
2019-02-17T06:35:06.863Z,18.07
2019-02-17T06:37:35.190Z,19.37
2019-02-17T06:40:04.882Z,21.33
2019-02-17T06:42:33.264Z,30.10
2019-02-17T06:45:01.664Z,19.77
2019-02-17T06:47:31.024Z,23.43
2019-02-17T06:49:59.326Z,22.98
2019-02-17T06:52:27.705Z,21.13
2019-02-17T06:55:03.241Z,21.83
2019-02-17T06:57:33.579Z,26.07
2019-02-17T07:00:05.519Z,23.57
2019-02-17T07:02:33.882Z,24.17
2019-02-17T07:05:06.068Z,25.32
2019-02-17T07:07:34.485Z,21.00
2019-02-17T07:10:04.474Z,25.40
2019-02-17T07:12:32.813Z,23.43
2019-02-17T07:15:01.166Z,23.73
2019-02-17T07:17:29.533Z,18.46
2019-02-17T07:19:57.882Z,25.90
2019-02-17T07:22:26.227Z,19.80
2019-02-17T07:24:54.593Z,21.37
2019-02-17T07:27:22.991Z,22.07
2019-02-17T07:29:51.321Z,19.97
2019-02-17T07:32:19.680Z,23.18
2019-02-17T07:34:48.026Z,21.13
2019-02-17T07:37:16.367Z,19.97
2019-02-17T07:39:44.716Z,23.63
2019-02-17T07:42:13.110Z,21.60
2019-02-17T07:44:41.519Z,19.47
2019-02-17T07:47:09.896Z,23.90
2019-02-17T07:49:38.229Z,23.57
2019-02-17T07:52:06.796Z,21.20
2019-02-17T07:54:35.118Z,24.70
2019-02-17T07:57:03.505Z,22.67
2019-02-17T07:59:31.892Z,24.93
2019-02-17T08:02:00.285Z,21.73
2019-02-17T08:04:28.596Z,22.93
2019-02-17T08:06:56.974Z,24.30
2019-02-17T08:09:25.305Z,22.60
2019-02-17T08:11:53.697Z,23.87
2019-02-17T08:14:22.044Z,22.77
2019-02-17T08:16:50.413Z,20.80
2019-02-17T08:19:18.741Z,22.50
2019-02-17T08:21:47.114Z,21.50
2019-02-17T08:24:15.466Z,21.13
2019-02-17T08:26:43.829Z,22.60
2019-02-17T08:29:12.186Z,21.70
2019-02-17T08:31:40.565Z,22.93
2019-02-17T08:34:09.173Z,23.52
2019-02-17T08:36:37.552Z,21.67
2019-02-17T08:39:06.432Z,24.40
2019-02-17T08:41:34.764Z,20.25
2019-02-17T08:44:03.061Z,22.93
2019-02-17T08:46:31.437Z,23.73
2019-02-17T08:48:59.811Z,20.57
2019-02-17T08:51:28.162Z,22.00
2019-02-17T08:53:56.487Z,24.40
2019-02-17T08:56:24.984Z,23.07
2019-02-17T08:58:53.274Z,21.50
2019-02-17T09:01:21.649Z,21.47
2019-02-17T09:03:49.983Z,20.43
2019-02-17T09:06:18.340Z,22.53
2019-02-17T09:08:46.695Z,21.00
2019-02-17T09:11:15.345Z,21.97
2019-02-17T09:13:43.720Z,25.77
2019-02-17T09:16:12.057Z,26.42
2019-02-17T09:18:41.022Z,23.30
2019-02-17T09:21:09.455Z,23.97
2019-02-17T09:23:37.809Z,24.70
2019-02-17T09:26:06.173Z,23.17
2019-02-17T09:28:34.550Z,23.40
2019-02-17T09:31:03.109Z,23.83
2019-02-17T09:33:31.486Z,22.97
2019-02-17T09:35:59.877Z,27.67
2019-02-17T09:38:28.230Z,24.33
2019-02-17T09:40:56.561Z,23.87
2019-02-17T09:43:24.901Z,26.43
2019-02-17T09:45:53.450Z,29.10
2019-02-17T09:48:21.809Z,24.57
2019-02-17T09:50:50.201Z,20.93
2019-02-17T09:53:18.526Z,24.90
2019-02-17T09:55:46.992Z,31.63
2019-02-17T09:58:15.444Z,25.67
2019-02-17T10:00:43.798Z,26.33
2019-02-17T10:03:12.320Z,30.90
2019-02-17T10:05:40.722Z,27.10
2019-02-17T10:08:09.462Z,26.60
2019-02-17T10:10:37.791Z,24.00
2019-02-17T10:13:06.326Z,23.85
2019-02-17T10:15:34.713Z,28.53
2019-02-17T10:18:03.090Z,26.30
2019-02-17T10:20:31.432Z,27.37
2019-02-17T10:22:59.808Z,28.20
2019-02-17T10:25:28.134Z,25.40
2019-02-17T10:27:56.476Z,27.50
2019-02-17T10:30:24.806Z,28.73
2019-02-17T10:32:53.207Z,27.45
2019-02-17T10:35:21.526Z,29.00
2019-02-17T10:37:49.950Z,27.83
2019-02-17T10:40:19.325Z,28.93
2019-02-17T10:42:48.077Z,26.97
2019-02-17T10:45:16.497Z,28.03
2019-02-17T10:47:44.852Z,27.50
2019-02-17T10:50:13.501Z,27.60
2019-02-17T10:52:42.076Z,28.20
2019-02-17T10:55:12.245Z,31.33
2019-02-17T10:57:40.662Z,28.97
2019-02-17T11:00:14.730Z,29.00
2019-02-17T11:02:47.274Z,27.10
2019-02-17T11:05:13.655Z,29.67
2019-02-17T11:07:42.176Z,33.17
2019-02-17T11:10:11.610Z,29.25
2019-02-17T11:12:40.020Z,26.73
2019-02-17T11:15:14.685Z,26.13
2019-02-17T11:17:43.022Z,39.83
2019-02-17T11:20:11.646Z,32.00
2019-02-17T11:22:40.097Z,26.50
2019-02-17T11:25:09.573Z,32.27
2019-02-17T11:27:37.912Z,30.53
2019-02-17T11:30:11.242Z,29.17
2019-02-17T11:32:39.598Z,37.97
2019-02-17T11:35:08.810Z,28.53
2019-02-17T11:37:37.128Z,28.20
2019-02-17T11:40:07.958Z,29.03
2019-02-17T11:42:36.349Z,27.10
2019-02-17T11:45:08.932Z,30.27
2019-02-17T11:47:37.256Z,33.80
2019-02-17T11:50:07.805Z,27.10
2019-02-17T11:52:36.203Z,33.83
2019-02-17T11:55:07.481Z,37.63
2019-02-17T11:57:35.817Z,33.70
2019-02-17T12:00:09.685Z,32.20
2019-02-17T12:02:38.012Z,31.97
2019-02-17T12:05:08.668Z,33.10
2019-02-17T12:07:36.987Z,31.87
2019-02-17T12:10:08.757Z,38.70
2019-02-17T12:12:37.146Z,33.30
2019-02-17T12:15:08.999Z,31.30
2019-02-17T12:17:37.322Z,33.00
2019-02-17T12:20:16.868Z,32.35
2019-02-17T12:22:45.477Z,31.60
2019-02-17T12:25:13.929Z,30.17
2019-02-17T12:27:42.684Z,30.53
2019-02-17T12:30:11.977Z,36.38
2019-02-17T12:32:40.331Z,33.58
2019-02-17T12:35:09.665Z,28.20
2019-02-17T12:37:37.978Z,38.75
2019-02-17T12:40:09.610Z,28.27
2019-02-17T12:42:37.918Z,38.97
2019-02-17T12:45:10.815Z,31.40
2019-02-17T12:47:39.230Z,30.17
2019-02-17T12:50:10.652Z,31.67
2019-02-17T12:52:46.755Z,30.50
2019-02-17T12:55:10.282Z,36.23
2019-02-17T12:57:39.197Z,35.53
2019-02-17T13:00:12.542Z,32.13
2019-02-17T13:02:40.910Z,36.37
2019-02-17T13:05:10.270Z,37.30
2019-02-17T13:07:38.664Z,29.43
2019-02-17T13:10:09.068Z,29.60
2019-02-17T13:12:37.414Z,38.50
2019-02-17T13:15:08.336Z,31.43
2019-02-17T13:17:36.685Z,27.20
2019-02-17T13:20:09.123Z,30.70
2019-02-17T13:22:37.452Z,30.80
2019-02-17T13:25:09.112Z,25.32
2019-02-17T13:27:37.525Z,28.93
2019-02-17T13:30:11.646Z,29.97
2019-02-17T13:32:40.026Z,42.47
2019-02-17T13:35:09.146Z,31.23
2019-02-17T13:37:37.731Z,31.65
2019-02-17T13:40:09.677Z,28.90
2019-02-17T13:42:38.096Z,28.70
2019-02-17T13:45:12.181Z,29.40
2019-02-17T13:47:40.629Z,28.98
2019-02-17T13:50:12.227Z,28.00
2019-02-17T13:52:40.593Z,30.77
2019-02-17T13:55:10.365Z,30.13
2019-02-17T13:57:38.780Z,24.53
2019-02-17T14:00:11.953Z,28.37
2019-02-17T14:02:40.309Z,23.93
2019-02-17T14:05:09.581Z,27.70
2019-02-17T14:07:37.905Z,23.57
2019-02-17T14:10:09.852Z,26.05
2019-02-17T14:12:38.352Z,27.70
2019-02-17T14:15:12.795Z,23.27
2019-02-17T14:17:41.134Z,35.58
2019-02-17T14:20:10.549Z,28.03
2019-02-17T14:22:39.133Z,23.40
2019-02-17T14:25:10.998Z,24.90
2019-02-17T14:27:39.915Z,29.20
2019-02-17T14:30:12.783Z,23.65
2019-02-17T14:32:41.240Z,25.43
2019-02-17T14:35:10.227Z,24.10
2019-02-17T14:37:38.633Z,26.23
2019-02-17T14:40:09.329Z,23.05
2019-02-17T14:42:37.705Z,25.72
2019-02-17T14:45:10.632Z,23.53
2019-02-17T14:47:38.994Z,22.60
2019-02-17T14:50:08.870Z,24.55
2019-02-17T14:52:37.226Z,22.47
2019-02-17T14:55:08.283Z,23.07
2019-02-17T14:57:36.633Z,23.62
2019-02-17T15:00:10.748Z,23.67
2019-02-17T15:02:39.140Z,24.80
2019-02-17T15:05:09.418Z,23.63
2019-02-17T15:07:37.850Z,31.40
2019-02-17T15:10:10.094Z,27.30
2019-02-17T15:12:38.453Z,21.17
2019-02-17T15:15:10.033Z,20.23
2019-02-17T15:17:38.406Z,24.47
2019-02-17T15:20:09.487Z,25.30
2019-02-17T15:22:37.829Z,28.30
2019-02-17T15:25:09.174Z,24.30
2019-02-17T15:27:37.503Z,26.20
2019-02-17T15:30:10.333Z,61.45
2019-02-17T15:32:38.684Z,23.73
2019-02-17T15:35:07.450Z,24.80
2019-02-17T15:37:35.767Z,24.70
2019-02-17T15:40:07.958Z,23.30
2019-02-17T15:42:36.292Z,30.90
2019-02-17T15:45:08.647Z,25.13
2019-02-17T15:47:37.007Z,32.03
2019-02-17T15:50:08.499Z,29.87
2019-02-17T15:52:36.830Z,25.63
2019-02-17T15:55:08.554Z,28.57
2019-02-17T15:57:36.973Z,29.13
2019-02-17T16:00:08.471Z,34.25
2019-02-17T16:02:36.804Z,29.45
2019-02-17T16:05:06.749Z,30.77
2019-02-17T16:07:35.061Z,31.73
2019-02-17T16:10:08.542Z,28.05
2019-02-17T16:12:37.105Z,29.83
2019-02-17T16:15:10.780Z,30.40
2019-02-17T16:17:39.135Z,30.20
2019-02-17T16:20:10.850Z,34.97
2019-02-17T16:22:39.945Z,28.60
2019-02-17T16:25:09.775Z,29.27
2019-02-17T16:27:38.199Z,36.50
2019-02-17T16:30:10.453Z,32.47
2019-02-17T16:32:38.776Z,32.63
2019-02-17T16:35:07.770Z,29.97
2019-02-17T16:37:36.145Z,30.30
2019-02-17T16:40:06.997Z,29.47
2019-02-17T16:42:35.358Z,27.25
2019-02-17T16:45:05.509Z,30.60
2019-02-17T16:47:33.859Z,30.90
2019-02-17T16:50:02.228Z,32.20
2019-02-17T16:52:30.663Z,32.70
2019-02-17T16:54:59.063Z,28.10
2019-02-17T16:57:27.389Z,29.30
2019-02-17T16:59:55.794Z,33.00
2019-02-17T17:02:24.335Z,31.00
2019-02-17T17:04:52.715Z,32.00
2019-02-17T17:07:21.062Z,31.60
2019-02-17T17:09:49.426Z,29.70
2019-02-17T17:12:17.746Z,31.57
2019-02-17T17:14:46.120Z,30.80
2019-02-17T17:17:14.694Z,30.70
2019-02-17T17:19:43.298Z,36.00
2019-02-17T17:22:11.721Z,33.80
2019-02-17T17:24:40.346Z,32.33
2019-02-17T17:27:09.330Z,32.37
2019-02-17T17:29:37.813Z,32.67
2019-02-17T17:32:06.275Z,33.43
2019-02-17T17:34:34.754Z,33.35
2019-02-17T17:37:03.177Z,33.28
2019-02-17T17:39:31.665Z,29.63
2019-02-17T17:42:00.137Z,30.13
2019-02-17T17:44:28.765Z,30.77
2019-02-17T17:46:57.735Z,31.50
2019-02-17T17:49:26.275Z,29.13
2019-02-17T17:51:54.637Z,30.10
2019-02-17T17:54:25.697Z,29.80
2019-02-17T17:56:54.360Z,29.13
2019-02-17T17:59:22.930Z,29.70
2019-02-17T18:01:51.293Z,27.60
2019-02-17T18:04:19.673Z,27.43
2019-02-17T18:06:48.118Z,32.87
2019-02-17T18:09:16.458Z,37.20
2019-02-17T18:11:44.815Z,31.87
2019-02-17T18:14:13.898Z,30.30
2019-02-17T18:16:42.233Z,37.77
2019-02-17T18:19:10.967Z,30.15
2019-02-17T18:21:39.339Z,34.90
2019-02-17T18:24:07.645Z,33.37
2019-02-17T18:26:35.997Z,33.33
2019-02-17T18:29:04.535Z,40.33
2019-02-17T18:31:32.903Z,30.35
2019-02-17T18:34:01.249Z,30.50
2019-02-17T18:36:29.606Z,36.80
2019-02-17T18:38:57.953Z,38.87
2019-02-17T18:41:26.310Z,36.33
2019-02-17T18:43:54.661Z,41.20
2019-02-17T18:46:23.010Z,39.25
2019-02-17T18:48:51.381Z,34.17
2019-02-17T18:51:19.725Z,40.60
2019-02-17T18:53:48.145Z,42.37
2019-02-17T18:56:42.445Z,41.10
2019-02-17T18:59:11.137Z,35.07
2019-02-17T19:01:39.520Z,37.30
2019-02-17T19:04:08.042Z,36.43
2019-02-17T19:06:36.402Z,39.73
2019-02-17T19:09:06.242Z,34.43
2019-02-17T19:11:34.588Z,44.15
2019-02-17T19:14:02.909Z,34.27
2019-02-17T19:16:31.328Z,38.30
2019-02-17T19:18:59.707Z,48.67
2019-02-17T19:21:28.121Z,37.50
2019-02-17T19:23:56.482Z,41.80
2019-02-17T19:26:24.959Z,37.73
2019-02-17T19:28:53.353Z,40.47
2019-02-17T19:31:21.696Z,34.87
2019-02-17T19:33:50.126Z,38.70
2019-02-17T19:36:18.514Z,38.87
2019-02-17T19:38:47.204Z,39.98
2019-02-17T19:41:15.531Z,39.50
2019-02-17T19:43:43.912Z,45.10
2019-02-17T19:46:12.383Z,36.17
2019-02-17T19:48:40.730Z,46.83
2019-02-17T19:51:09.170Z,35.40
2019-02-17T19:53:37.529Z,34.03
2019-02-17T19:56:07.517Z,38.40
2019-02-17T19:58:36.114Z,41.60
2019-02-17T20:01:04.481Z,36.15
2019-02-17T20:03:36.138Z,35.30
2019-02-17T20:06:12.431Z,40.52
2019-02-17T20:08:41.386Z,36.95
2019-02-17T20:11:11.385Z,43.87
2019-02-17T20:13:39.905Z,35.48
2019-02-17T20:16:08.245Z,37.73
2019-02-17T20:18:37.001Z,39.27
2019-02-17T20:21:05.343Z,41.73
2019-02-17T20:23:33.886Z,39.60
2019-02-17T20:26:02.741Z,39.07
2019-02-17T20:28:40.831Z,36.47
2019-02-17T20:31:01.413Z,34.73
2019-02-17T20:33:29.731Z,39.23
2019-02-17T20:36:02.650Z,34.17
2019-02-17T20:38:28.696Z,37.90
2019-02-17T20:40:57.079Z,36.83
2019-02-17T20:43:25.407Z,38.00
2019-02-17T20:45:53.769Z,39.63
2019-02-17T20:48:22.196Z,40.40
2019-02-17T20:50:50.567Z,46.50
2019-02-17T20:53:19.003Z,48.47
2019-02-17T20:55:47.403Z,39.57
2019-02-17T20:58:15.779Z,41.33
2019-02-17T21:00:44.482Z,35.73
2019-02-17T21:03:13.351Z,44.50
2019-02-17T21:05:41.753Z,42.70
2019-02-17T21:08:11.518Z,37.77
2019-02-17T21:10:39.888Z,34.70
2019-02-17T21:13:10.708Z,36.27
2019-02-17T21:15:40.683Z,35.93
2019-02-17T21:18:09.584Z,40.10
2019-02-17T21:20:39.365Z,36.70
2019-02-17T21:23:07.773Z,36.10
2019-02-17T21:25:36.122Z,44.07
2019-02-17T21:28:04.472Z,40.63
2019-02-17T21:30:32.845Z,39.80
2019-02-17T21:33:01.219Z,34.17
2019-02-17T21:35:29.553Z,37.30
2019-02-17T21:37:57.995Z,37.63
2019-02-17T21:40:26.396Z,37.93
2019-02-17T21:42:54.761Z,34.83
2019-02-17T21:45:23.167Z,35.50
2019-02-17T21:47:51.518Z,33.43
2019-02-17T21:50:19.866Z,33.20
2019-02-17T21:52:48.249Z,36.60
2019-02-17T21:55:16.654Z,33.13
2019-02-17T21:57:45.085Z,34.15
2019-02-17T22:00:18.203Z,36.33
2019-02-17T22:02:46.624Z,34.25
2019-02-17T22:05:15.546Z,32.45
2019-02-17T22:07:44.021Z,33.93
2019-02-17T22:10:14.460Z,36.30
2019-02-17T22:12:42.768Z,36.03
2019-02-17T22:15:15.696Z,34.37
2019-02-17T22:17:44.073Z,30.83
2019-02-17T22:20:13.606Z,29.83
2019-02-17T22:22:42.042Z,30.60
2019-02-17T22:25:11.004Z,32.97
2019-02-17T22:27:39.371Z,30.77
2019-02-17T22:30:10.988Z,29.53
2019-02-17T22:32:39.371Z,29.82
2019-02-17T22:35:07.730Z,29.13
2019-02-17T22:37:36.170Z,31.17
2019-02-17T22:40:06.775Z,29.42
2019-02-17T22:42:35.094Z,24.30
2019-02-17T22:45:05.245Z,23.67
2019-02-17T22:47:33.607Z,27.07
2019-02-17T22:50:02.031Z,30.57
2019-02-17T22:52:30.726Z,28.07
2019-02-17T22:54:59.094Z,25.53
2019-02-17T22:57:27.402Z,28.13
2019-02-17T22:59:55.785Z,30.13
2019-02-17T23:02:24.210Z,33.73
2019-02-17T23:04:52.600Z,29.50
2019-02-17T23:07:20.923Z,29.10
2019-02-17T23:09:49.284Z,33.57
2019-02-17T23:12:17.668Z,35.73
2019-02-17T23:14:46.023Z,41.83
2019-02-17T23:17:14.409Z,38.60
2019-02-17T23:19:42.770Z,35.17
2019-02-17T23:22:11.466Z,33.83
2019-02-17T23:24:39.888Z,39.77
2019-02-17T23:27:08.215Z,39.33
2019-02-17T23:29:36.582Z,40.60
2019-02-17T23:32:04.902Z,44.93
2019-02-17T23:34:33.247Z,38.03
2019-02-17T23:37:04.092Z,38.70
2019-02-17T23:39:31.977Z,38.67
2019-02-17T23:42:00.337Z,38.53
2019-02-17T23:44:28.679Z,45.20
2019-02-17T23:46:57.023Z,43.00
2019-02-17T23:49:25.358Z,43.67
2019-02-17T23:51:53.694Z,39.63
2019-02-17T23:54:22.030Z,40.13
2019-02-17T23:56:50.402Z,34.47
2019-02-17T23:59:18.753Z,36.90
